Time;durP1;ratioP1;P1;durP2;ratioP2;P2;SDS_P1;SDS_P2;PMS_P1;PMS_P2;Temp;Humidity;BMP_temperature;BMP_pressure;BME280_temperature;BME280_humidity;BME280_pressure;Samples;Min_cycle;Max_cycle;Signal;HPM_P1;HPM_P2
2022/11/27 00:01:58;;;;;;;10.07;3.17;;;;;;;7.41;100.00;102416.22;5236041;28;20036;-68
2022/11/27 00:04:29;;;;;;;8.73;3.88;;;;;;;7.37;100.00;102406.03;5236357;28;20052;-68
2022/11/27 00:07:00;;;;;;;12.68;3.35;;;;;;;7.35;100.00;102420.88;5238661;28;20022;-68
2022/11/27 00:09:32;;;;;;;13.73;4.22;;;;;;;7.29;100.00;102414.19;5239028;28;20072;-68
2022/11/27 00:12:03;;;;;;;9.75;3.67;;;;;;;7.24;100.00;102410.97;5237396;28;20024;-68
2022/11/27 00:14:35;;;;;;;12.32;3.97;;;;;;;7.29;100.00;102416.81;5237045;28;20518;-68
2022/11/27 00:17:06;;;;;;;11.68;3.60;;;;;;;7.25;100.00;102416.09;5238160;28;20018;-68
2022/11/27 00:19:37;;;;;;;9.68;3.80;;;;;;;7.21;100.00;102411.09;5237867;28;20042;-68
2022/11/27 00:22:08;;;;;;;9.75;3.38;;;;;;;7.20;100.00;102415.47;5236940;28;20027;-68
2022/11/27 00:24:42;;;;;;;8.65;3.63;;;;;;;7.21;100.00;102403.28;5237950;28;20044;-68
2022/11/27 00:27:13;;;;;;;;;;;;;;;7.69;100.00;102387.13;5238172;28;20021;-68
2022/11/27 00:29:44;;;;;;;11.67;3.63;;;;;;;7.17;100.00;102391.31;5236765;28;19921;-68
2022/11/27 00:32:16;;;;;;;8.23;3.88;;;;;;;7.15;100.00;102390.53;5236986;28;20033;-68
2022/11/27 00:34:47;;;;;;;11.10;4.13;;;;;;;7.10;100.00;102387.28;5236164;28;20029;-68
2022/11/27 00:37:18;;;;;;;15.52;3.70;;;;;;;7.07;100.00;102389.09;5237294;28;20025;-68
2022/11/27 00:39:49;;;;;;;11.13;4.63;;;;;;;7.02;100.00;102385.03;5237500;28;20035;-68
2022/11/27 00:42:21;;;;;;;13.82;4.22;;;;;;;7.00;100.00;102392.91;5237053;28;20045;-68
2022/11/27 00:44:52;;;;;;;9.10;3.72;;;;;;;7.01;100.00;102385.94;5237281;28;20028;-68
2022/11/27 00:47:23;;;;;;;11.68;4.78;;;;;;;6.99;100.00;102382.56;5236874;28;20032;-68
2022/11/27 00:49:54;;;;;;;8.90;4.15;;;;;;;6.97;100.00;102379.16;5235393;28;20038;-68
2022/11/27 00:52:26;;;;;;;11.30;4.10;;;;;;;6.98;100.00;102368.69;5236912;28;20037;-68
2022/11/27 00:54:57;;;;;;;11.00;4.30;;;;;;;6.96;100.00;102370.50;5236989;28;20033;-68
2022/11/27 00:57:28;;;;;;;11.32;5.22;;;;;;;6.99;100.00;102365.16;5236972;28;20020;-68
2022/11/27 01:00:00;;;;;;;12.57;4.50;;;;;;;6.98;100.00;102366.09;5236687;28;20021;-68
2022/11/27 01:02:31;;;;;;;12.60;4.68;;;;;;;6.96;100.00;102354.88;5234231;28;20394;-68
2022/11/27 01:05:02;;;;;;;15.93;5.13;;;;;;;6.95;100.00;102354.94;5236564;28;20021;-68
2022/11/27 01:07:34;;;;;;;12.60;4.30;;;;;;;6.95;100.00;102352.34;5237498;28;20013;-68
2022/11/27 01:10:06;;;;;;;19.85;5.05;;;;;;;6.95;100.00;102350.59;5235728;28;20079;-68
2022/11/27 01:12:37;;;;;;;10.55;4.25;;;;;;;6.94;100.00;102341.09;5234715;28;20035;-68
2022/11/27 01:15:09;;;;;;;11.30;4.63;;;;;;;6.91;100.00;102336.00;5235262;28;20025;-68
2022/11/27 01:17:40;;;;;;;13.77;4.93;;;;;;;6.91;100.00;102332.56;5236623;28;20022;-68
2022/11/27 01:20:11;;;;;;;13.52;5.10;;;;;;;6.91;100.00;102332.56;5233577;28;20049;-68
2022/11/27 01:22:43;;;;;;;15.30;4.60;;;;;;;6.90;100.00;102334.31;5234892;28;20021;-68
2022/11/27 01:25:14;;;;;;;10.77;4.65;;;;;;;6.89;100.00;102350.00;5236849;28;20025;-68
2022/11/27 01:27:45;;;;;;;12.30;4.60;;;;;;;6.86;100.00;102343.19;5236096;28;20028;-68
2022/11/27 01:30:16;;;;;;;11.25;4.43;;;;;;;6.87;100.00;102339.66;5235912;28;20033;-68
2022/11/27 01:32:48;;;;;;;11.13;4.95;;;;;;;6.89;100.00;102339.59;5236102;28;20088;-68
2022/11/27 01:35:19;;;;;;;13.48;5.15;;;;;;;6.87;100.00;102337.06;5236411;28;20029;-68
2022/11/27 01:37:50;;;;;;;15.63;4.82;;;;;;;6.82;100.00;102311.22;5235612;28;20024;-68
2022/11/27 01:40:22;;;;;;;12.70;5.00;;;;;;;6.85;100.00;102318.03;5235474;28;20079;-68
2022/11/27 01:42:53;;;;;;;15.43;4.63;;;;;;;6.86;100.00;102303.25;5236196;28;20117;-68
2022/11/27 01:45:25;;;;;;;13.45;5.25;;;;;;;6.86;100.00;102305.84;5236736;28;20037;-68
2022/11/27 01:48:01;;;;;;;16.25;4.88;;;;;;;6.91;100.00;102303.91;5250564;28;20108;-68
2022/11/27 01:50:35;;;;;;;13.40;4.78;;;;;;;6.82;100.00;102305.19;5235395;28;20041;-68
2022/11/27 01:53:16;;;;;;;14.15;4.53;;;;;;;6.86;100.00;102300.63;5235028;28;20096;-68
2022/11/27 01:55:53;;;;;;;16.70;4.97;;;;;;;6.76;100.00;102287.22;5235965;28;20036;-68
2022/11/27 01:58:27;;;;;;;9.88;4.32;;;;;;;6.71;100.00;102278.78;5235355;28;20030;-67
2022/11/27 02:00:59;;;;;;;13.18;5.60;;;;;;;6.60;100.00;102268.00;5235172;28;20132;-68
2022/11/27 02:03:31;;;;;;;13.40;5.13;;;;;;;6.58;100.00;102268.88;5235846;28;20033;-68
2022/11/27 02:06:02;;;;;;;12.45;5.70;;;;;;;6.60;100.00;102262.78;5235769;28;20461;-68
2022/11/27 02:08:34;;;;;;;14.90;5.30;;;;;;;6.56;100.00;102256.88;5234165;28;20487;-68
2022/11/27 02:11:14;;;;;;;14.63;5.65;;;;;;;6.65;100.00;102251.22;5235200;28;20025;-68
2022/11/27 02:13:57;;;;;;;11.23;5.30;;;;;;;6.61;100.00;102249.69;5236138;28;20028;-68
2022/11/27 02:16:42;;;;;;;10.32;4.57;;;;;;;6.53;100.00;102239.63;5235412;28;20033;-68
2022/11/27 02:19:29;;;;;;;14.20;5.45;;;;;;;6.53;100.00;102249.19;5234583;28;20095;-68
2022/11/27 02:22:14;;;;;;;12.15;4.65;;;;;;;6.58;100.00;102242.84;5232818;28;20040;-68
2022/11/27 02:25:06;;;;;;;11.48;4.95;;;;;;;6.47;100.00;102241.66;5234352;28;20120;-68
2022/11/27 02:28:03;;;;;;;13.20;5.38;;;;;;;6.60;100.00;102234.16;5235075;28;20025;-68
2022/11/27 02:30:42;;;;;;;19.25;6.72;;;;;;;6.41;100.00;102232.38;5234588;28;20036;-68
2022/11/27 02:33:18;;;;;;;13.38;5.20;;;;;;;6.40;100.00;102225.44;5233199;28;20025;-68
2022/11/27 02:35:59;;;;;;;19.17;6.07;;;;;;;6.40;100.00;102229.81;5233297;28;20394;-68
2022/11/27 02:38:37;;;;;;;13.60;5.65;;;;;;;6.34;100.00;102223.16;5235214;28;20025;-68
2022/11/27 02:41:14;;;;;;;14.88;6.00;;;;;;;6.32;100.00;102223.19;5234103;28;20419;-68
2022/11/27 02:43:48;;;;;;;16.98;6.90;;;;;;;6.30;100.00;102213.78;5235014;28;20041;-68
2022/11/27 02:46:21;;;;;;;12.77;5.97;;;;;;;6.26;100.00;102212.25;5234710;28;20029;-68
2022/11/27 02:48:55;;;;;;;14.88;6.10;;;;;;;6.30;100.00;102206.81;5234882;28;20125;-68
2022/11/27 02:51:36;;;;;;;14.68;5.75;;;;;;;6.25;100.00;102213.13;5234454;28;20533;-68
2022/11/27 02:54:12;;;;;;;14.40;6.35;;;;;;;6.28;100.00;102226.84;5235141;28;20112;-68
2022/11/27 02:56:47;;;;;;;11.35;5.47;;;;;;;6.22;100.00;102232.34;5234415;28;20032;-68
2022/11/27 02:59:20;;;;;;;16.00;6.35;;;;;;;6.25;100.00;102223.53;5233435;28;20505;-68
2022/11/27 03:02:01;;;;;;;15.43;5.50;;;;;;;6.31;100.00;102228.47;5229312;28;20029;-68
2022/11/27 03:04:40;;;;;;;13.43;4.97;;;;;;;6.33;100.00;102234.47;5233914;28;20029;-68
2022/11/27 03:07:18;;;;;;;12.70;5.75;;;;;;;6.33;100.00;102226.66;5234119;28;20029;-68
2022/11/27 03:09:55;;;;;;;11.77;5.43;;;;;;;6.37;100.00;102232.59;5233859;28;20037;-68
2022/11/27 03:12:27;;;;;;;15.57;5.82;;;;;;;6.35;100.00;102224.81;5230295;28;20083;-68
2022/11/27 03:14:58;;;;;;;11.00;5.07;;;;;;;6.37;100.00;102222.19;5236613;28;20052;-68
2022/11/27 03:17:53;;;;;;;16.08;5.88;;;;;;;6.56;100.00;102220.41;5238787;28;20604;-68
2022/11/27 03:20:29;;;;;;;9.23;4.45;;;;;;;6.44;100.00;102210.53;5237639;28;20061;-68
2022/11/27 03:23:01;;;;;;;12.82;5.60;;;;;;;6.41;100.00;102214.16;5236387;28;20025;-68
2022/11/27 03:25:32;;;;;;;14.18;5.82;;;;;;;6.44;100.00;102206.22;5238205;28;20028;-68
2022/11/27 03:28:09;;;;;;;12.48;4.88;;;;;;;6.50;100.00;102211.13;5238829;28;20039;-68
2022/11/27 03:30:40;;;;;;;13.23;4.85;;;;;;;6.48;100.00;102220.78;5237445;28;20371;-68
2022/11/27 03:33:12;;;;;;;9.68;4.78;;;;;;;6.46;100.00;102208.72;5238135;28;20029;-68
2022/11/27 03:35:43;;;;;;;10.55;4.55;;;;;;;6.49;100.00;102212.03;5239310;28;20095;-68
2022/11/27 03:38:14;;;;;;;8.52;4.72;;;;;;;6.53;100.00;102200.56;5235839;28;20853;-68
2022/11/27 03:41:28;;;;;;;11.13;4.28;;;;;;;6.77;100.00;102197.72;5237831;28;20549;-68
2022/11/27 03:44:02;;;;;;;9.40;4.30;;;;;;;6.57;100.00;102185.66;5237913;28;20050;-68
2022/11/27 03:47:00;;;;;;;9.98;4.95;;;;;;;6.69;100.00;102179.84;5237762;28;20112;-68
2022/11/27 03:50:02;;;;;;;7.95;3.83;;;;;;;6.70;100.00;102175.50;5236478;28;20521;-68
2022/11/27 03:52:55;;;;;;;9.85;4.40;;;;;;;6.73;100.00;102181.41;5238092;28;20029;-68
2022/11/27 03:55:54;;;;;;;8.50;4.47;;;;;;;6.77;100.00;102179.50;5238694;28;20482;-68
2022/11/27 03:58:51;;;;;;;9.15;3.65;;;;;;;6.69;100.00;102179.03;5237434;28;20475;-68
2022/11/27 04:01:25;;;;;;;9.98;4.25;;;;;;;6.61;100.00;102178.53;5236422;28;20036;-68
2022/11/27 04:03:56;;;;;;;9.55;3.58;;;;;;;6.60;100.00;102180.31;5237387;28;20029;-68
2022/11/27 04:06:27;;;;;;;7.68;3.40;;;;;;;6.64;100.00;102186.22;5237072;28;20030;-68
2022/11/27 04:08:58;;;;;;;7.85;3.78;;;;;;;6.63;100.00;102187.97;5237844;28;20037;-68
2022/11/27 04:11:30;;;;;;;9.95;3.63;;;;;;;6.64;100.00;102194.88;5237248;28;20509;-68
2022/11/27 04:14:01;;;;;;;11.05;4.00;;;;;;;6.65;100.00;102193.09;5237832;28;20027;-68
2022/11/27 04:16:32;;;;;;;11.50;4.15;;;;;;;6.61;100.00;102183.75;5237271;28;20032;-68
2022/11/27 04:19:03;;;;;;;7.45;3.55;;;;;;;6.64;100.00;102192.25;5237419;28;20059;-67
2022/11/27 04:21:35;;;;;;;9.00;3.35;;;;;;;6.66;100.00;102200.00;5237311;28;20083;-68
2022/11/27 04:24:06;;;;;;;7.03;3.45;;;;;;;6.66;100.00;102200.00;5235164;28;20056;-68
2022/11/27 04:26:37;;;;;;;6.85;3.60;;;;;;;6.66;100.00;102198.22;5238620;28;20028;-68
2022/11/27 04:29:09;;;;;;;6.75;3.70;;;;;;;6.63;100.00;102189.72;5237248;28;20041;-68
2022/11/27 04:31:40;;;;;;;7.80;3.80;;;;;;;6.68;100.00;102185.16;5236023;28;20049;-68
2022/11/27 04:34:11;;;;;;;7.88;3.65;;;;;;;6.69;100.00;102186.84;5237610;28;20079;-68
2022/11/27 04:36:42;;;;;;;6.85;3.92;;;;;;;6.68;100.00;102192.97;5234824;28;20056;-67
2022/11/27 04:39:14;;;;;;;7.45;3.75;;;;;;;6.70;100.00;102191.13;5234313;28;20025;-67
2022/11/27 04:41:45;;;;;;;5.68;3.05;;;;;;;6.70;100.00;102197.16;5237273;28;20107;-68
2022/11/27 04:44:17;;;;;;;8.23;3.25;;;;;;;6.69;100.00;102186.84;5237307;28;20033;-68
2022/11/27 04:46:48;;;;;;;8.35;3.88;;;;;;;6.72;100.00;102194.50;5236808;28;20477;-68
2022/11/27 04:49:20;;;;;;;9.18;3.50;;;;;;;6.67;100.00;102180.88;5237318;28;20036;-68
2022/11/27 04:51:51;;;;;;;7.45;3.60;;;;;;;6.70;100.00;102176.31;5237594;28;20021;-68
2022/11/27 04:54:22;;;;;;;7.97;3.28;;;;;;;6.70;100.00;102173.72;5235738;28;20021;-68
2022/11/27 04:56:54;;;;;;;7.15;3.33;;;;;;;6.70;100.00;102170.28;5236380;28;20026;-68
2022/11/27 04:59:25;;;;;;;6.05;3.47;;;;;;;6.68;100.00;102169.53;5236941;28;20033;-68
2022/11/27 05:01:56;;;;;;;9.35;3.58;;;;;;;6.66;100.00;102155.72;5234471;28;20025;-68
2022/11/27 05:04:27;;;;;;;9.23;4.20;;;;;;;6.70;100.00;102160.69;5235960;28;20473;-68
2022/11/27 05:06:59;;;;;;;7.97;3.60;;;;;;;6.73;100.00;102154.50;5234599;28;20017;-68
2022/11/27 05:09:30;;;;;;;7.72;3.72;;;;;;;6.74;100.00;102145.78;5236103;28;20025;-68
2022/11/27 05:12:01;;;;;;;7.55;3.65;;;;;;;6.71;100.00;102141.59;5235147;28;20113;-68
2022/11/27 05:14:32;;;;;;;7.03;3.33;;;;;;;6.70;100.00;102131.22;5237193;28;20021;-68
2022/11/27 05:17:04;;;;;;;8.85;3.75;;;;;;;6.71;100.00;102140.75;5236455;28;20108;-68
2022/11/27 05:19:35;;;;;;;6.85;3.45;;;;;;;6.72;100.00;102140.66;5236132;28;20029;-68
2022/11/27 05:22:07;;;;;;;7.32;3.25;;;;;;;6.74;100.00;102127.53;5235287;28;20037;-68
2022/11/27 05:24:38;;;;;;;7.47;3.65;;;;;;;6.74;100.00;102124.94;5236176;28;20076;-68
2022/11/27 05:27:09;;;;;;;5.68;3.13;;;;;;;6.76;100.00;102130.94;5236237;28;20025;-68
2022/11/27 05:29:42;;;;;;;5.90;3.08;;;;;;;6.78;100.00;102136.91;5236387;28;20417;-68
2022/11/27 05:32:13;;;;;;;7.13;3.15;;;;;;;6.77;100.00;102132.63;5235995;28;20316;-68
2022/11/27 05:34:44;;;;;;;8.68;3.70;;;;;;;6.79;100.00;102136.84;5236313;28;20021;-68
2022/11/27 05:37:16;;;;;;;9.30;3.90;;;;;;;6.82;100.00;102122.84;5236162;28;20025;-68
2022/11/27 05:39:47;;;;;;;8.60;3.10;;;;;;;6.82;100.00;102125.44;5237267;28;20033;-68
2022/11/27 05:42:18;;;;;;;7.95;3.30;;;;;;;6.84;100.00;102128.78;5234663;28;20045;-68
2022/11/27 05:44:49;;;;;;;9.60;3.47;;;;;;;6.81;100.00;102116.75;5236328;28;20088;-68
2022/11/27 05:47:21;;;;;;;7.50;2.97;;;;;;;6.82;100.00;102109.81;5236593;28;20083;-68
2022/11/27 05:49:52;;;;;;;8.25;3.05;;;;;;;6.81;100.00;102102.88;5235879;28;20022;-68
2022/11/27 05:52:23;;;;;;;7.38;3.22;;;;;;;6.81;100.00;102108.94;5235763;28;20039;-68
2022/11/27 05:54:55;;;;;;;6.65;3.03;;;;;;;6.81;100.00;102106.34;5235234;28;20021;-68
2022/11/27 05:57:27;;;;;;;7.40;3.00;;;;;;;6.81;100.00;102088.09;5236818;28;20465;-68
2022/11/27 05:59:58;;;;;;;7.40;3.33;;;;;;;6.82;100.00;102092.41;5234771;28;20049;-68
2022/11/27 06:02:29;;;;;;;8.65;3.78;;;;;;;6.85;100.00;102090.56;5235324;28;20071;-68
2022/11/27 06:05:00;;;;;;;6.85;3.53;;;;;;;6.83;100.00;102090.66;5236364;28;20017;-68
2022/11/27 06:07:32;;;;;;;12.32;3.30;;;;;;;6.82;100.00;102091.59;5235451;28;20029;-68
2022/11/27 06:10:03;;;;;;;7.00;3.42;;;;;;;6.86;100.00;102094.84;5234424;28;20044;-68
2022/11/27 06:12:35;;;;;;;8.27;3.45;;;;;;;6.85;100.00;102091.41;5235010;28;20025;-68
2022/11/27 06:15:06;;;;;;;9.02;3.17;;;;;;;6.86;100.00;102089.63;5235842;28;20033;-68
2022/11/27 06:17:38;;;;;;;5.63;2.85;;;;;;;6.85;100.00;102086.19;5250257;28;20025;-68
2022/11/27 06:20:09;;;;;;;6.47;3.03;;;;;;;6.85;100.00;102082.75;5235190;28;20099;-68
2022/11/27 06:22:40;;;;;;;7.47;3.05;;;;;;;6.87;100.00;102084.38;5232312;28;20395;-68
2022/11/27 06:25:12;;;;;;;7.35;3.30;;;;;;;6.90;100.00;102086.00;5235407;28;20049;-68
2022/11/27 06:27:43;;;;;;;8.52;3.67;;;;;;;6.88;100.00;102078.22;5235650;28;20030;-68
2022/11/27 06:30:14;;;;;;;7.07;2.95;;;;;;;6.89;100.00;102076.47;5234835;28;20521;-68
2022/11/27 06:32:46;;;;;;;6.50;2.90;;;;;;;6.91;100.00;102082.47;5234895;28;20033;-69
2022/11/27 06:35:17;;;;;;;7.45;3.55;;;;;;;6.92;100.00;102081.53;5235477;28;20207;-69
2022/11/27 06:37:48;;;;;;;9.88;3.20;;;;;;;6.92;100.00;102079.75;5235331;28;20386;-69
2022/11/27 06:40:19;;;;;;;7.57;3.22;;;;;;;6.90;100.00;102083.38;5234847;28;20475;-70
2022/11/27 06:42:51;;;;;;;6.93;2.90;;;;;;;6.90;100.00;102086.84;5236649;28;20048;-69
2022/11/27 06:45:22;;;;;;;7.07;3.65;;;;;;;6.91;100.00;102082.47;5240111;28;20034;-69
2022/11/27 06:47:53;;;;;;;6.97;3.45;;;;;;;6.92;100.00;102082.38;5238738;28;20049;-69
2022/11/27 06:50:25;;;;;;;6.20;2.88;;;;;;;6.93;100.00;102078.88;5237473;28;20065;-69
2022/11/27 06:52:56;;;;;;;10.18;3.88;;;;;;;6.89;100.00;102074.69;5239840;28;20032;-69
2022/11/27 06:55:28;;;;;;;7.82;3.17;;;;;;;6.89;100.00;102066.88;5239734;28;20060;-69
2022/11/27 06:57:59;;;;;;;12.95;3.42;;;;;;;6.87;100.00;102063.53;5238795;28;20371;-69
2022/11/27 07:00:30;;;;;;;8.10;3.75;;;;;;;6.86;100.00;102069.66;5254373;28;20447;-69
2022/11/27 07:03:02;;;;;;;10.13;3.63;;;;;;;6.81;100.00;102048.19;5239782;28;20347;-69
2022/11/27 07:05:35;;;;;;;7.18;3.10;;;;;;;6.87;100.00;102057.47;5238034;28;20111;-69
2022/11/27 07:08:06;;;;;;;8.40;3.47;;;;;;;6.87;100.00;102054.88;5238956;28;20105;-69
2022/11/27 07:10:37;;;;;;;7.25;3.20;;;;;;;6.83;100.00;102051.56;5238280;28;20553;-69
2022/11/27 07:13:09;;;;;;;6.72;3.13;;;;;;;6.82;100.00;102039.47;5237358;28;20017;-69
2022/11/27 07:15:40;;;;;;;7.05;3.08;;;;;;;6.80;100.00;102036.94;5239040;28;20033;-69
2022/11/27 07:18:11;;;;;;;9.73;3.80;;;;;;;6.81;100.00;102028.19;5237938;28;20036;-69
2022/11/27 07:20:50;;;;;;;9.45;3.75;;;;;;;6.95;100.00;102018.84;5238827;28;20466;-69
2022/11/27 07:23:22;;;;;;;7.28;3.50;;;;;;;6.81;100.00;102027.34;5238420;28;20033;-69
2022/11/27 07:25:53;;;;;;;8.25;4.10;;;;;;;6.76;100.00;102016.34;5238383;28;20660;-69
2022/11/27 07:28:24;;;;;;;6.43;3.38;;;;;;;6.78;100.00;102019.69;5237670;28;20029;-69
2022/11/27 07:30:57;;;;;;;8.48;3.42;;;;;;;6.79;100.00;102016.19;5237131;28;20037;-70
2022/11/27 07:33:28;;;;;;;7.53;3.53;;;;;;;6.81;100.00;102014.34;5238370;28;20033;-69
2022/11/27 07:36:04;;;;;;;7.20;3.25;;;;;;;6.83;100.00;102005.53;5239044;28;20509;-69
2022/11/27 07:38:35;;;;;;;5.88;3.10;;;;;;;6.78;100.00;102001.47;5237111;28;20040;-69
2022/11/27 07:41:07;;;;;;;8.52;3.42;;;;;;;6.81;100.00;101999.53;5238048;28;20128;-69
2022/11/27 07:43:40;;;;;;;6.85;3.80;;;;;;;6.81;100.00;102011.72;5238762;28;20033;-69
2022/11/27 07:46:18;;;;;;;7.60;3.58;;;;;;;6.87;100.00;102005.38;5237051;28;20447;-69
2022/11/27 07:48:49;;;;;;;7.57;3.47;;;;;;;6.81;100.00;101999.53;5236119;28;20992;-69
2022/11/27 07:51:21;;;;;;;9.73;3.40;;;;;;;6.78;100.00;101986.69;5237296;28;20044;-69
2022/11/27 07:53:52;;;;;;;8.85;3.50;;;;;;;6.85;100.00;101984.59;5237353;28;20021;-68
2022/11/27 07:56:24;;;;;;;9.07;3.35;;;;;;;6.84;100.00;101967.28;5237834;28;20380;-69
2022/11/27 07:58:57;;;;;;;8.63;3.70;;;;;;;6.85;100.00;101968.97;5238300;28;20017;-69
2022/11/27 08:01:28;;;;;;;7.25;3.78;;;;;;;6.87;100.00;101964.53;5237801;28;20029;-69
2022/11/27 08:03:59;;;;;;;7.65;3.30;;;;;;;6.89;100.00;101972.28;5235186;28;20493;-69
2022/11/27 08:06:30;;;;;;;8.77;4.25;;;;;;;6.90;100.00;101971.38;5237450;28;20026;-69
2022/11/27 08:09:02;;;;;;;8.25;3.63;;;;;;;6.88;100.00;101963.63;5238353;28;20044;-69
2022/11/27 08:11:34;;;;;;;10.45;3.83;;;;;;;6.92;100.00;101959.09;5238345;28;20033;-68
2022/11/27 08:14:07;;;;;;;7.25;3.58;;;;;;;6.91;100.00;101960.84;5237699;28;20060;-69
2022/11/27 08:16:38;;;;;;;8.07;4.18;;;;;;;6.93;100.00;101966.84;5238403;28;20036;-69
2022/11/27 08:19:09;;;;;;;8.23;3.72;;;;;;;6.94;100.00;101962.47;5236219;28;20018;-69
2022/11/27 08:21:41;;;;;;;6.53;4.20;;;;;;;6.96;100.00;101956.25;5237202;28;20025;-69
2022/11/27 08:24:12;;;;;;;8.15;4.63;;;;;;;6.97;100.00;101955.34;5237929;28;20108;-69
2022/11/27 08:26:43;;;;;;;10.45;5.00;;;;;;;6.95;100.00;101961.53;5238250;28;20068;-68
2022/11/27 08:29:14;;;;;;;8.43;4.07;;;;;;;7.01;100.00;101956.03;5236874;28;20090;-68
2022/11/27 08:31:46;;;;;;;8.05;4.35;;;;;;;7.01;100.00;101961.25;5237733;28;20510;-69
2022/11/27 08:34:17;;;;;;;10.77;4.75;;;;;;;7.03;100.00;101962.81;5238320;28;20017;-69
2022/11/27 08:36:48;;;;;;;7.45;4.53;;;;;;;7.06;100.00;101962.66;5237624;28;20080;-68
2022/11/27 08:39:19;;;;;;;8.52;4.57;;;;;;;7.06;100.00;101957.47;5236907;28;20067;-69
2022/11/27 08:41:52;;;;;;;7.88;4.20;;;;;;;7.06;100.00;101960.06;5235985;28;20442;-69
2022/11/27 08:44:23;;;;;;;10.50;4.55;;;;;;;7.12;100.00;101955.44;5235487;28;20045;-69
2022/11/27 08:46:54;;;;;;;8.65;5.13;;;;;;;7.14;100.00;101953.59;5236473;28;20022;-69
2022/11/27 08:49:26;;;;;;;8.27;4.90;;;;;;;7.18;100.00;101955.97;5227362;28;20041;-69
2022/11/27 08:51:57;;;;;;;8.57;4.55;;;;;;;7.20;100.00;101953.31;5233048;28;20097;-68
2022/11/27 08:54:28;;;;;;;8.10;4.50;;;;;;;7.23;100.00;101958.31;5236933;28;20418;-69
2022/11/27 08:57:00;;;;;;;10.15;5.22;;;;;;;7.23;100.00;101956.56;5235988;28;20489;-69
2022/11/27 08:59:31;;;;;;;9.30;4.82;;;;;;;7.24;100.00;101967.84;5235542;28;20494;-69
2022/11/27 09:02:02;;;;;;;7.25;4.93;;;;;;;7.26;100.00;101968.59;5235784;28;20146;-69
2022/11/27 09:04:34;;;;;;;11.32;5.70;;;;;;;7.29;100.00;101969.28;5232747;28;20057;-69
2022/11/27 09:07:05;;;;;;;9.50;5.07;;;;;;;7.29;100.00;101961.47;5234004;28;20104;-69
2022/11/27 09:09:36;;;;;;;10.02;5.10;;;;;;;7.34;100.00;101971.63;5234382;28;20033;-69
2022/11/27 09:12:07;;;;;;;8.65;5.15;;;;;;;7.37;100.00;101963.66;5230403;28;20037;-69
2022/11/27 09:14:39;;;;;;;8.63;5.55;;;;;;;7.40;100.00;101958.28;5236019;28;20029;-70
2022/11/27 09:17:10;;;;;;;8.27;5.50;;;;;;;7.39;100.00;101953.16;5235702;28;20414;-69
2022/11/27 09:19:41;;;;;;;10.88;6.00;;;;;;;7.40;100.00;101958.28;5234993;28;20021;-69
2022/11/27 09:22:13;;;;;;;10.40;6.13;;;;;;;7.42;100.00;101952.97;5235534;28;20029;-70
2022/11/27 09:24:44;;;;;;;10.48;6.20;;;;;;;7.44;100.00;101959.78;5235460;28;20097;-69
2022/11/27 09:27:15;;;;;;;9.65;5.90;;;;;;;7.46;100.00;101955.34;5234497;28;20033;-69
2022/11/27 09:29:46;;;;;;;10.38;6.25;;;;;;;7.44;100.00;101948.53;5235764;28;20037;-69
2022/11/27 09:32:18;;;;;;;11.02;6.22;;;;;;;7.47;100.00;101957.03;5234517;28;20056;-70
2022/11/27 09:34:52;;;;;;;8.93;6.00;;;;;;;7.54;100.00;101962.75;5234425;28;20455;-69
2022/11/27 09:37:24;;;;;;;8.02;6.05;;;;;;;7.52;100.00;101960.22;5234222;28;20025;-69
2022/11/27 09:39:55;;;;;;;11.30;6.45;;;;;;;7.53;100.00;101956.69;5234549;28;20075;-69
2022/11/27 09:42:38;;;;;;;14.65;7.57;;;;;;;7.71;100.00;101948.78;5234623;28;20485;-69
2022/11/27 09:45:16;;;;;;;15.10;6.82;;;;;;;7.65;100.00;101943.91;5234914;28;20557;-69
2022/11/27 09:47:55;;;;;;;12.95;6.75;;;;;;;7.71;100.00;101946.19;5234591;28;20029;-69
2022/11/27 09:50:32;;;;;;;11.15;7.00;;;;;;;7.65;100.00;101936.06;5232694;28;20037;-69
2022/11/27 09:53:19;;;;;;;9.50;6.78;;;;;;;7.76;100.00;101938.94;5233128;28;20076;-69
2022/11/27 09:55:53;;;;;;;9.15;6.28;;;;;;;7.65;100.00;101928.25;5234410;28;20053;-69
2022/11/27 09:58:39;;;;;;;11.10;6.60;;;;;;;7.85;100.00;101928.00;5233886;28;20017;-69
2022/11/27 10:01:14;;;;;;;8.15;5.95;;;;;;;7.79;100.00;101928.34;5234619;28;20414;-69
2022/11/27 10:03:46;;;;;;;13.55;7.28;;;;;;;7.81;100.00;101921.28;5235605;28;20115;-70
2022/11/27 10:06:25;;;;;;;11.23;7.07;;;;;;;7.85;100.00;101924.56;5234758;28;20047;-70
2022/11/27 10:09:06;;;;;;;12.43;7.10;;;;;;;7.95;100.00;101921.31;5234591;28;20394;-70
2022/11/27 10:11:52;;;;;;;11.02;6.93;;;;;;;7.89;100.00;101918.25;5233500;28;20033;-70
2022/11/27 10:14:53;;;;;;;9.85;6.85;;;;;;;8.08;100.00;101907.59;5233950;28;20474;-69
2022/11/27 10:17:47;;;;;;;8.48;6.63;;;;;;;7.92;100.00;101907.63;5234347;28;20033;-69
2022/11/27 10:20:47;;;;;;;10.90;7.15;;;;;;;8.13;100.00;101895.94;5234658;28;20241;-70
2022/11/27 10:23:48;;;;;;;11.57;7.03;;;;;;;8.06;100.00;101889.41;5233657;28;20021;-70
2022/11/27 10:26:48;;;;;;;10.98;7.28;;;;;;;8.13;100.00;101882.91;5234570;28;20075;-69
2022/11/27 10:29:40;;;;;;;10.45;6.55;;;;;;;8.05;100.00;101885.13;5233319;28;20053;-70
2022/11/27 10:32:18;;;;;;;10.48;6.80;;;;;;;8.04;100.00;101886.88;5230541;28;20036;-70
2022/11/27 10:34:57;;;;;;;10.07;6.90;;;;;;;8.07;100.00;101885.00;5233383;28;20054;-69
2022/11/27 10:37:42;;;;;;;8.55;6.20;;;;;;;8.16;100.00;101874.91;5234007;28;20030;-69
2022/11/27 10:40:13;;;;;;;13.20;5.90;;;;;;;8.02;100.00;101875.69;5232736;28;20037;-69
2022/11/27 10:42:50;;;;;;;11.20;7.07;;;;;;;8.16;100.00;101871.44;5234147;28;20392;-69
2022/11/27 10:45:38;;;;;;;13.55;7.00;;;;;;;8.20;100.00;101868.56;5234900;28;20681;-69
2022/11/27 10:48:10;;;;;;;9.00;6.57;;;;;;;8.04;100.00;101863.41;5232616;28;20466;-69
2022/11/27 10:50:41;;;;;;;8.32;6.32;;;;;;;8.03;100.00;101866.94;5233179;28;20065;-69
2022/11/27 10:53:32;;;;;;;9.75;6.53;;;;;;;8.26;100.00;101864.78;5234799;28;20100;-69
2022/11/27 10:56:17;;;;;;;11.15;6.63;;;;;;;8.07;100.00;101857.16;5233794;28;20044;-69
2022/11/27 10:58:55;;;;;;;10.68;6.45;;;;;;;8.15;100.00;101854.13;5234445;28;20151;-69
2022/11/27 11:01:39;;;;;;;8.48;6.55;;;;;;;8.16;100.00;101847.97;5233613;28;20059;-67
2022/11/27 11:04:13;;;;;;;10.82;6.90;;;;;;;8.16;100.00;101840.13;5233097;28;20104;-68
2022/11/27 11:06:48;;;;;;;12.68;6.80;;;;;;;8.15;100.00;101835.84;5233129;28;20076;-69
2022/11/27 11:09:29;;;;;;;11.57;7.03;;;;;;;8.28;100.00;101837.63;5233502;28;20026;-68
2022/11/27 11:12:08;;;;;;;12.13;6.93;;;;;;;8.26;100.00;101828.22;5234025;28;20049;-68
2022/11/27 11:14:49;;;;;;;10.45;5.90;;;;;;;8.25;100.00;101814.31;5232391;28;20116;-69
2022/11/27 11:17:25;;;;;;;10.93;6.30;;;;;;;8.25;100.00;101810.84;5232941;28;20018;-68
2022/11/27 11:19:56;;;;;;;9.80;6.47;;;;;;;8.20;100.00;101816.34;5233061;28;20491;-68
2022/11/27 11:22:28;;;;;;;9.77;6.70;;;;;;;8.23;100.00;101815.34;5232958;28;20112;-68
2022/11/27 11:25:01;;;;;;;10.80;6.90;;;;;;;8.27;100.00;101809.00;5234424;28;20026;-70
2022/11/27 11:27:32;;;;;;;8.18;5.63;;;;;;;8.28;100.00;101800.22;5234655;28;20029;-68
2022/11/27 11:30:06;;;;;;;9.85;6.55;;;;;;;8.25;100.00;101789.97;5234728;28;20033;-68
2022/11/27 11:32:39;;;;;;;10.88;6.75;;;;;;;8.31;100.00;101791.38;5237302;28;20037;-70
2022/11/27 11:35:33;;;;;;;8.77;6.43;;;;;;;8.53;100.00;101783.97;5237777;28;20489;-68
2022/11/27 11:38:15;;;;;;;11.20;6.38;;;;;;;8.46;100.00;101780.06;5236825;28;20163;-68
2022/11/27 11:41:05;;;;;;;8.25;6.40;;;;;;;8.53;100.00;101770.91;5234826;28;20148;-68
2022/11/27 11:43:36;;;;;;;8.65;6.00;;;;;;;8.32;100.00;101780.84;5237473;28;20029;-69
2022/11/27 11:46:21;;;;;;;9.43;6.80;;;;;;;8.50;100.00;101771.94;5237069;28;20053;-69
2022/11/27 11:49:14;;;;;;;8.43;6.15;;;;;;;8.55;100.00;101750.75;5236482;28;20029;-72
2022/11/27 11:52:06;;;;;;;8.63;6.25;;;;;;;8.45;100.00;101758.31;5235014;28;20084;-71
2022/11/27 11:54:55;;;;;;;11.23;6.43;;;;;;;8.40;100.00;101755.13;5229447;28;20029;-69
2022/11/27 11:57:45;;;;;;;9.05;5.60;;;;;;;8.64;100.00;101757.19;5233175;28;20017;-72